Time;durP1;ratioP1;P1;durP2;ratioP2;P2;SDS_P1;SDS_P2;PMS_P1;PMS_P2;Temp;Humidity;BMP_temperature;BMP_pressure;BME280_temperature;BME280_humidity;BME280_pressure;Samples;Min_cycle;Max_cycle;Signal;HPM_P1;HPM_P2
2024/01/27 00:00:33;;;;;;;0.20;0.20;;;;;;;;;;6242939;28;20026;-80
2024/01/27 00:03:34;;;;;;;0.20;0.20;;;;;;;;;;6243044;28;20025;-79
2024/01/27 00:06:34;;;;;;;0.20;0.20;;;;;;;;;;6243268;28;20021;-80
2024/01/27 00:09:34;;;;;;;0.20;0.20;;;;;;;;;;6242590;28;20017;-80
2024/01/27 00:12:34;;;;;;;0.20;0.20;;;;;;;;;;6241811;28;20013;-80
2024/01/27 00:15:35;;;;;;;0.20;0.20;;;;;;;;;;6224162;28;20021;-80
2024/01/27 00:18:38;;;;;;;0.20;0.20;;;;;;;;;;6242745;28;20375;-80
2024/01/27 00:21:38;;;;;;;0.20;0.20;;;;;;;;;;6242508;28;20025;-81
2024/01/27 00:24:39;;;;;;;0.20;0.20;;;;;;;;;;6241911;28;20096;-81
2024/01/27 00:27:39;;;;;;;0.20;0.20;;;;;;;;;;6241869;28;20029;-81
2024/01/27 00:30:39;;;;;;;0.20;0.20;;;;;;;;;;6242538;28;20538;-80
2024/01/27 00:33:39;;;;;;;0.20;0.20;;;;;;;;;;6260091;28;20147;-80
2024/01/27 00:36:41;;;;;;;0.20;0.20;;;;;;;;;;6247083;28;20018;-80
2024/01/27 00:39:41;;;;;;;0.20;0.20;;;;;;;;;;6228783;28;20361;-80
2024/01/27 00:42:41;;;;;;;0.20;0.20;;;;;;;;;;6247480;28;20025;-80
2024/01/27 00:45:42;;;;;;;0.20;0.20;;;;;;;;;;6246777;28;20080;-80
2024/01/27 00:48:44;;;;;;;0.20;0.20;;;;;;;;;;6236722;28;20034;-80
2024/01/27 00:51:44;;;;;;;0.20;0.20;;;;;;;;;;6242969;28;20068;-80
2024/01/27 00:54:44;;;;;;;0.20;0.20;;;;;;;;;;6246633;28;20025;-79
2024/01/27 00:57:45;;;;;;;0.13;0.13;;;;;;;;;;6247274;28;20021;-79
2024/01/27 01:00:45;;;;;;;0.20;0.20;;;;;;;;;;6245847;28;20021;-79
2024/01/27 01:03:45;;;;;;;0.20;0.20;;;;;;;;;;6228809;28;20479;-79
2024/01/27 01:06:45;;;;;;;0.20;0.20;;;;;;;;;;6228563;28;20013;-79
2024/01/27 01:09:46;;;;;;;0.20;0.20;;;;;;;;;;6246715;28;20029;-79
2024/01/27 01:12:46;;;;;;;0.20;0.20;;;;;;;;;;6241601;28;20027;-79
2024/01/27 01:15:47;;;;;;;0.20;0.20;;;;;;;;;;6246611;28;20021;-76
2024/01/27 01:18:47;;;;;;;0.20;0.20;;;;;;;;;;6246144;28;20056;-76
2024/01/27 01:21:47;;;;;;;0.20;0.20;;;;;;;;;;6246388;28;20060;-76
2024/01/27 01:24:47;;;;;;;0.20;0.20;;;;;;;;;;6245931;28;20017;-76
2024/01/27 01:27:49;;;;;;;0.10;0.10;;;;;;;;;;6247588;28;20029;-76
2024/01/27 01:30:50;;;;;;;0.20;0.20;;;;;;;;;;6258101;28;20017;-76
2024/01/27 01:33:50;;;;;;;0.20;0.20;;;;;;;;;;6254225;28;20463;-77
2024/01/27 01:36:50;;;;;;;0.20;0.20;;;;;;;;;;6258860;28;20112;-77
2024/01/27 01:39:50;;;;;;;0.10;0.10;;;;;;;;;;6245403;28;20028;-77
2024/01/27 01:42:51;;;;;;;0.20;0.20;;;;;;;;;;6245372;28;20025;-74
2024/01/27 01:45:53;;;;;;;0.20;0.20;;;;;;;;;;6245556;28;20021;-74
2024/01/27 01:48:54;;;;;;;0.10;0.10;;;;;;;;;;6228041;28;20053;-75
2024/01/27 01:51:54;;;;;;;0.20;0.20;;;;;;;;;;6220780;28;20420;-75
2024/01/27 01:54:54;;;;;;;0.20;0.20;;;;;;;;;;6220667;28;20034;-75
2024/01/27 01:57:54;;;;;;;0.20;0.20;;;;;;;;;;6221074;28;20028;-75
2024/01/27 02:00:55;;;;;;;0.20;0.20;;;;;;;;;;6220588;28;20029;-75
2024/01/27 02:03:56;;;;;;;0.20;0.20;;;;;;;;;;6202705;28;20029;-75
2024/01/27 02:06:56;;;;;;;0.20;0.20;;;;;;;;;;6220697;28;20068;-76
2024/01/27 02:09:56;;;;;;;0.20;0.20;;;;;;;;;;6220729;28;20022;-76
2024/01/27 02:12:57;;;;;;;0.20;0.20;;;;;;;;;;6202596;28;20489;-76
2024/01/27 02:15:58;;;;;;;0.20;0.20;;;;;;;;;;6220596;28;20064;-76
2024/01/27 02:18:58;;;;;;;0.20;0.20;;;;;;;;;;6220306;28;20032;-76
2024/01/27 02:21:58;;;;;;;0.20;0.20;;;;;;;;;;6216434;28;20049;-76
2024/01/27 02:24:58;;;;;;;0.20;0.20;;;;;;;;;;6207582;28;20054;-76
2024/01/27 02:27:59;;;;;;;0.20;0.20;;;;;;;;;;6216654;28;20017;-81
2024/01/27 02:31:03;;;;;;;0.20;0.20;;;;;;;;;;6202296;28;20025;-81
2024/01/27 02:34:03;;;;;;;0.20;0.20;;;;;;;;;;6220236;28;20030;-81
2024/01/27 02:37:05;;;;;;;0.20;0.20;;;;;;;;;;6218304;28;20032;-81
2024/01/27 02:40:06;;;;;;;0.20;0.20;;;;;;;;;;6206853;28;20062;-81
2024/01/27 02:43:06;;;;;;;0.10;0.10;;;;;;;;;;6218120;28;20032;-81
2024/01/27 02:46:12;;;;;;;0.20;0.20;;;;;;;;;;6195062;28;20026;-81
2024/01/27 02:49:12;;;;;;;0.20;0.20;;;;;;;;;;6231066;28;20424;-81
2024/01/27 02:52:13;;;;;;;0.20;0.20;;;;;;;;;;6230730;28;20036;-81
2024/01/27 02:55:14;;;;;;;0.20;0.20;;;;;;;;;;6257323;28;20037;-81
2024/01/27 02:58:14;;;;;;;0.20;0.20;;;;;;;;;;6225183;28;20041;-81
2024/01/27 03:01:14;;;;;;;0.10;0.10;;;;;;;;;;6241699;28;20484;-81
2024/01/27 03:04:15;;;;;;;0.20;0.20;;;;;;;;;;6243972;28;20064;-82
2024/01/27 03:07:15;;;;;;;0.10;0.10;;;;;;;;;;6240886;28;20423;-82
2024/01/27 03:10:15;;;;;;;0.20;0.20;;;;;;;;;;6232567;28;20030;-82
2024/01/27 03:13:15;;;;;;;0.20;0.20;;;;;;;;;;6230043;28;20025;-81
2024/01/27 03:16:17;;;;;;;0.20;0.20;;;;;;;;;;6236580;28;20117;-81
2024/01/27 03:19:18;;;;;;;0.20;0.20;;;;;;;;;;6247094;28;20063;-81
2024/01/27 03:22:18;;;;;;;0.20;0.20;;;;;;;;;;6257000;28;20030;-81
2024/01/27 03:25:18;;;;;;;0.20;0.20;;;;;;;;;;6232540;28;20479;-81
2024/01/27 03:28:18;;;;;;;0.20;0.20;;;;;;;;;;6238805;28;20040;-80
2024/01/27 03:31:18;;;;;;;0.20;0.20;;;;;;;;;;6243127;28;20029;-79
2024/01/27 03:34:24;;;;;;;0.20;0.20;;;;;;;;;;6226653;28;20025;-79
2024/01/27 03:37:24;;;;;;;0.20;0.20;;;;;;;;;;6242798;28;20029;-79
2024/01/27 03:40:24;;;;;;;0.20;0.20;;;;;;;;;;6239128;28;20029;-79
2024/01/27 03:43:24;;;;;;;0.20;0.20;;;;;;;;;;6234757;28;20100;-80
2024/01/27 03:46:24;;;;;;;0.20;0.20;;;;;;;;;;6233204;28;20464;-79
2024/01/27 03:49:25;;;;;;;0.20;0.20;;;;;;;;;;6203877;28;20496;-79
2024/01/27 03:52:25;;;;;;;0.20;0.20;;;;;;;;;;6218356;28;20022;-79
2024/01/27 03:55:25;;;;;;;0.20;0.20;;;;;;;;;;6211584;28;20072;-80
2024/01/27 03:58:25;;;;;;;0.20;0.20;;;;;;;;;;6204218;28;20022;-80
2024/01/27 04:01:26;;;;;;;0.20;0.20;;;;;;;;;;6200846;28;20057;-80
2024/01/27 04:04:26;;;;;;;0.20;0.20;;;;;;;;;;6217275;28;20014;-82
2024/01/27 04:07:27;;;;;;;0.20;0.20;;;;;;;;;;6218437;28;20014;-81
2024/01/27 04:10:27;;;;;;;0.20;0.20;;;;;;;;;;6200159;28;20032;-81
2024/01/27 04:13:28;;;;;;;0.20;0.20;;;;;;;;;;6200847;28;20394;-81
2024/01/27 04:16:28;;;;;;;0.20;0.20;;;;;;;;;;6192963;28;20034;-81
2024/01/27 04:19:28;;;;;;;0.20;0.20;;;;;;;;;;6207266;28;20504;-81
2024/01/27 04:22:28;;;;;;;0.20;0.20;;;;;;;;;;6206748;28;20011;-80
2024/01/27 04:25:29;;;;;;;0.20;0.20;;;;;;;;;;6208357;28;20022;-80
2024/01/27 04:28:30;;;;;;;0.20;0.20;;;;;;;;;;6200917;28;20605;-80
2024/01/27 04:31:33;;;;;;;0.20;0.20;;;;;;;;;;6217233;28;20026;-80
2024/01/27 04:34:33;;;;;;;0.20;0.20;;;;;;;;;;6217724;28;20022;-81
2024/01/27 04:37:33;;;;;;;0.20;0.20;;;;;;;;;;6200544;28;20440;-81
2024/01/27 04:40:35;;;;;;;0.20;0.20;;;;;;;;;;6217914;28;20014;-80
2024/01/27 04:43:35;;;;;;;0.20;0.20;;;;;;;;;;6218741;28;20037;-80
2024/01/27 04:46:35;;;;;;;0.20;0.20;;;;;;;;;;6217396;28;20049;-76
2024/01/27 04:49:35;;;;;;;0.20;0.20;;;;;;;;;;6221951;28;20030;-76
2024/01/27 04:52:36;;;;;;;0.20;0.20;;;;;;;;;;6241407;28;20013;-76
2024/01/27 04:55:36;;;;;;;0.20;0.20;;;;;;;;;;6229292;28;20045;-76
2024/01/27 04:58:36;;;;;;;0.20;0.20;;;;;;;;;;6231086;28;20014;-75
2024/01/27 05:01:37;;;;;;;0.20;0.20;;;;;;;;;;6219351;28;20026;-75
2024/01/27 05:04:37;;;;;;;0.20;0.20;;;;;;;;;;6239511;28;20014;-75
2024/01/27 05:07:38;;;;;;;0.20;0.20;;;;;;;;;;6241342;28;20018;-75
2024/01/27 05:10:39;;;;;;;0.20;0.20;;;;;;;;;;6234632;28;20021;-75
2024/01/27 05:13:40;;;;;;;0.20;0.20;;;;;;;;;;6221511;28;20432;-75
2024/01/27 05:16:40;;;;;;;0.20;0.20;;;;;;;;;;6241014;28;20327;-75
2024/01/27 05:19:40;;;;;;;0.20;0.20;;;;;;;;;;6237430;28;20025;-76
2024/01/27 05:22:40;;;;;;;0.20;0.20;;;;;;;;;;6238598;28;20013;-76
2024/01/27 05:25:40;;;;;;;0.20;0.20;;;;;;;;;;6239923;28;20017;-76
2024/01/27 05:28:41;;;;;;;0.20;0.20;;;;;;;;;;6246146;28;20042;-75
2024/01/27 05:31:43;;;;;;;0.20;0.20;;;;;;;;;;6245240;28;20025;-75
2024/01/27 05:34:43;;;;;;;0.20;0.20;;;;;;;;;;6243805;28;20041;-76
2024/01/27 05:37:44;;;;;;;0.20;0.20;;;;;;;;;;6239277;28;20087;-76
2024/01/27 05:40:45;;;;;;;0.20;0.20;;;;;;;;;;6241786;28;20480;-77
2024/01/27 05:43:45;;;;;;;0.20;0.20;;;;;;;;;;6243637;28;20090;-76
2024/01/27 05:46:45;;;;;;;0.20;0.20;;;;;;;;;;6245896;28;20068;-77
2024/01/27 05:49:45;;;;;;;0.20;0.20;;;;;;;;;;6243441;28;20496;-77
2024/01/27 05:52:46;;;;;;;0.20;0.20;;;;;;;;;;6245025;28;20017;-77
2024/01/27 05:55:46;;;;;;;0.20;0.20;;;;;;;;;;6220290;28;20018;-78
2024/01/27 05:58:48;;;;;;;0.20;0.20;;;;;;;;;;6232607;28;20014;-77
2024/01/27 06:01:48;;;;;;;;;;;;;;;;;;6251916;28;20021;-77
2024/01/27 06:04:49;;;;;;;0.20;0.20;;;;;;;;;;6242725;28;20292;-77
2024/01/27 06:07:49;;;;;;;0.20;0.20;;;;;;;;;;6241962;28;20492;-77
2024/01/27 06:10:49;;;;;;;0.20;0.20;;;;;;;;;;6227111;28;20047;-77
2024/01/27 06:13:49;;;;;;;0.20;0.20;;;;;;;;;;6250321;28;20087;-76
2024/01/27 06:16:51;;;;;;;0.20;0.20;;;;;;;;;;6234191;28;20018;-78
2024/01/27 06:19:51;;;;;;;0.20;0.20;;;;;;;;;;6240612;28;20035;-77
2024/01/27 06:22:54;;;;;;;0.20;0.20;;;;;;;;;;6243987;28;20054;-76
2024/01/27 06:25:56;;;;;;;0.20;0.20;;;;;;;;;;6212115;28;20113;-77
2024/01/27 06:28:56;;;;;;;0.20;0.20;;;;;;;;;;6232915;28;20446;-77
2024/01/27 06:31:57;;;;;;;0.20;0.20;;;;;;;;;;6238325;28;20090;-77
2024/01/27 06:34:57;;;;;;;0.20;0.20;;;;;;;;;;6240663;28;20044;-77
2024/01/27 06:37:57;;;;;;;0.20;0.20;;;;;;;;;;6239161;28;20022;-76
2024/01/27 06:40:58;;;;;;;0.20;0.20;;;;;;;;;;6242212;28;20096;-76
2024/01/27 06:43:58;;;;;;;0.20;0.20;;;;;;;;;;6218988;28;20473;-76
2024/01/27 06:46:58;;;;;;;0.20;0.20;;;;;;;;;;6235892;28;20059;-76
2024/01/27 06:49:58;;;;;;;0.17;0.17;;;;;;;;;;6242806;28;20356;-76
2024/01/27 06:52:59;;;;;;;0.20;0.20;;;;;;;;;;6223621;28;20018;-76
2024/01/27 06:55:59;;;;;;;0.20;0.20;;;;;;;;;;6241735;28;20029;-76
2024/01/27 06:58:59;;;;;;;0.20;0.20;;;;;;;;;;6244511;28;20028;-76
2024/01/27 07:02:00;;;;;;;0.20;0.20;;;;;;;;;;6243762;28;20033;-76
2024/01/27 07:05:00;;;;;;;0.20;0.20;;;;;;;;;;6237977;28;20067;-76
2024/01/27 07:08:00;;;;;;;0.20;0.20;;;;;;;;;;6238229;28;20439;-79
2024/01/27 07:11:00;;;;;;;0.20;0.20;;;;;;;;;;6237387;28;20025;-79
2024/01/27 07:14:01;;;;;;;0.20;0.20;;;;;;;;;;6243354;28;20867;-79
2024/01/27 07:17:03;;;;;;;0.20;0.20;;;;;;;;;;6244334;28;20411;-79
2024/01/27 07:20:05;;;;;;;0.20;0.20;;;;;;;;;;6242737;28;20025;-79
2024/01/27 07:23:05;;;;;;;0.20;0.20;;;;;;;;;;6242444;28;20036;-79
2024/01/27 07:26:07;;;;;;;0.20;0.20;;;;;;;;;;6240740;28;20026;-79
2024/01/27 07:29:07;;;;;;;0.20;0.20;;;;;;;;;;6249468;28;20018;-81
2024/01/27 07:32:13;;;;;;;0.20;0.20;;;;;;;;;;6240205;28;20021;-81
2024/01/27 07:35:13;;;;;;;0.20;0.20;;;;;;;;;;6234205;28;20032;-80
2024/01/27 07:38:13;;;;;;;0.20;0.20;;;;;;;;;;6221054;28;20033;-81
2024/01/27 07:41:13;;;;;;;0.20;0.20;;;;;;;;;;6211486;28;20009;-81
2024/01/27 07:44:14;;;;;;;0.20;0.20;;;;;;;;;;6223184;28;20412;-81
2024/01/27 07:47:14;;;;;;;0.20;0.20;;;;;;;;;;6239094;28;20117;-80
2024/01/27 07:50:15;;;;;;;0.20;0.20;;;;;;;;;;6230333;28;20424;-80
2024/01/27 07:53:15;;;;;;;0.20;0.20;;;;;;;;;;6239227;28;20044;-80
2024/01/27 07:56:16;;;;;;;0.20;0.20;;;;;;;;;;6232158;28;20486;-80
2024/01/27 07:59:16;;;;;;;0.20;0.20;;;;;;;;;;6239316;28;20471;-80
2024/01/27 08:02:16;;;;;;;0.20;0.20;;;;;;;;;;6232985;28;20563;-80
2024/01/27 08:05:16;;;;;;;0.20;0.20;;;;;;;;;;6238523;28;20022;-80
2024/01/27 08:08:17;;;;;;;0.13;0.13;;;;;;;;;;6239875;28;20100;-80
2024/01/27 08:11:17;;;;;;;0.20;0.20;;;;;;;;;;6219927;28;20017;-80
2024/01/27 08:14:18;;;;;;;0.20;0.20;;;;;;;;;;6230845;28;20017;-80
2024/01/27 08:17:18;;;;;;;0.20;0.20;;;;;;;;;;6224464;28;20040;-80
2024/01/27 08:20:18;;;;;;;0.20;0.20;;;;;;;;;;6228576;28;20129;-81
2024/01/27 08:23:18;;;;;;;0.10;0.10;;;;;;;;;;6241926;28;20021;-81
2024/01/27 08:26:20;;;;;;;0.20;0.20;;;;;;;;;;6238871;28;20028;-81
2024/01/27 08:29:20;;;;;;;;;;;;;;;;;;6242202;28;20056;-81
2024/01/27 08:32:21;;;;;;;0.20;0.20;;;;;;;;;;6241024;28;20331;-81
2024/01/27 08:35:21;;;;;;;0.20;0.20;;;;;;;;;;6239044;28;20048;-81
2024/01/27 08:38:21;;;;;;;0.20;0.20;;;;;;;;;;6240416;28;20104;-81
2024/01/27 08:41:22;;;;;;;0.10;0.10;;;;;;;;;;6239815;28;20022;-82
2024/01/27 08:44:23;;;;;;;0.20;0.20;;;;;;;;;;6233584;28;20021;-81
2024/01/27 08:47:23;;;;;;;0.20;0.20;;;;;;;;;;6221048;28;20068;-82
2024/01/27 08:50:24;;;;;;;0.20;0.20;;;;;;;;;;6238114;28;20335;-81
2024/01/27 08:53:24;;;;;;;0.20;0.20;;;;;;;;;;6237175;28;20430;-81
2024/01/27 08:56:24;;;;;;;0.20;0.20;;;;;;;;;;6231374;28;20021;-81
2024/01/27 08:59:24;;;;;;;0.20;0.20;;;;;;;;;;6237010;28;20029;-82
2024/01/27 09:02:25;;;;;;;0.20;0.20;;;;;;;;;;6223872;28;20030;-82
2024/01/27 09:05:25;;;;;;;0.20;0.20;;;;;;;;;;6238559;28;20012;-83
2024/01/27 09:08:25;;;;;;;0.20;0.20;;;;;;;;;;6236369;28;20006;-83
2024/01/27 09:11:29;;;;;;;0.20;0.20;;;;;;;;;;6247249;28;20014;-84
2024/01/27 09:14:30;;;;;;;0.20;0.20;;;;;;;;;;6247404;28;20029;-83
2024/01/27 09:17:30;;;;;;;0.20;0.20;;;;;;;;;;6234908;28;20109;-84
2024/01/27 09:20:31;;;;;;;0.20;0.20;;;;;;;;;;6239571;28;20021;-83
2024/01/27 09:23:31;;;;;;;0.20;0.20;;;;;;;;;;6237934;28;20384;-84
2024/01/27 09:26:32;;;;;;;0.20;0.20;;;;;;;;;;6246585;28;20100;-78
2024/01/27 09:29:32;;;;;;;0.30;0.30;;;;;;;;;;6245933;28;20048;-78
2024/01/27 09:32:32;;;;;;;0.20;0.20;;;;;;;;;;6244259;28;20036;-78
2024/01/27 09:35:32;;;;;;;0.20;0.20;;;;;;;;;;6235610;28;20032;-79
2024/01/27 09:38:33;;;;;;;0.20;0.20;;;;;;;;;;6245824;28;20104;-77
2024/01/27 09:41:33;;;;;;;0.20;0.20;;;;;;;;;;6245810;28;20018;-78
2024/01/27 09:44:34;;;;;;;0.20;0.20;;;;;;;;;;6245634;28;20028;-78
2024/01/27 09:47:36;;;;;;;0.20;0.20;;;;;;;;;;6244821;28;20112;-78
2024/01/27 09:50:36;;;;;;;0.20;0.20;;;;;;;;;;6245801;28;20021;-78
2024/01/27 09:53:36;;;;;;;0.30;0.30;;;;;;;;;;6245631;28;20029;-78
2024/01/27 09:56:37;;;;;;;0.20;0.20;;;;;;;;;;6243923;28;20029;-79
2024/01/27 09:59:38;;;;;;;0.20;0.20;;;;;;;;;;6245012;28;20017;-79
2024/01/27 10:02:40;;;;;;;0.20;0.20;;;;;;;;;;6227517;28;20052;-77
2024/01/27 10:05:41;;;;;;;0.22;0.22;;;;;;;;;;6218319;28;20020;-78
2024/01/27 10:08:44;;;;;;;0.20;0.20;;;;;;;;;;6242239;28;20009;-80
2024/01/27 10:11:47;;;;;;;0.20;0.20;;;;;;;;;;6226430;28;20411;-79
2024/01/27 10:14:50;;;;;;;0.20;0.20;;;;;;;;;;6245135;28;20017;-79
2024/01/27 10:17:50;;;;;;;0.20;0.20;;;;;;;;;;6222963;28;20084;-79
2024/01/27 10:20:51;;;;;;;0.20;0.20;;;;;;;;;;6239389;28;20384;-78
2024/01/27 10:23:51;;;;;;;0.20;0.20;;;;;;;;;;6244900;28;20024;-78
2024/01/27 10:26:51;;;;;;;0.20;0.20;;;;;;;;;;6227298;28;20395;-78
2024/01/27 10:29:52;;;;;;;0.20;0.20;;;;;;;;;;6253865;28;20024;-78
2024/01/27 10:32:59;;;;;;;0.20;0.20;;;;;;;;;;6247990;28;20049;-78
2024/01/27 10:35:59;;;;;;;0.20;0.20;;;;;;;;;;6244921;28;20017;-83
2024/01/27 10:38:59;;;;;;;0.20;0.20;;;;;;;;;;6242520;28;20117;-82
2024/01/27 10:42:02;;;;;;;0.20;0.20;;;;;;;;;;6244118;28;20017;-81
2024/01/27 10:45:03;;;;;;;0.20;0.20;;;;;;;;;;6244751;28;20025;-82
2024/01/27 10:48:04;;;;;;;0.20;0.20;;;;;;;;;;6215679;28;20109;-82
2024/01/27 10:51:07;;;;;;;0.20;0.20;;;;;;;;;;6219828;28;20480;-81
2024/01/27 10:54:10;;;;;;;0.20;0.20;;;;;;;;;;6215110;28;20113;-82
2024/01/27 10:57:11;;;;;;;0.15;0.15;;;;;;;;;;6190457;28;20033;-82
2024/01/27 11:00:12;;;;;;;0.20;0.20;;;;;;;;;;6207142;28;20048;-82
2024/01/27 11:03:13;;;;;;;0.20;0.20;;;;;;;;;;6208152;28;20014;-82
2024/01/27 11:06:14;;;;;;;0.20;0.20;;;;;;;;;;6214382;28;20026;-79
2024/01/27 11:09:15;;;;;;;0.20;0.20;;;;;;;;;;6201671;28;20478;-78
2024/01/27 11:12:16;;;;;;;0.20;0.20;;;;;;;;;;6218993;28;20106;-79
2024/01/27 11:15:16;;;;;;;0.20;0.20;;;;;;;;;;6200639;28;20034;-81
2024/01/27 11:18:17;;;;;;;0.20;0.20;;;;;;;;;;6206939;28;20022;-80
2024/01/27 11:21:17;;;;;;;0.20;0.20;;;;;;;;;;6212230;28;20016;-80
2024/01/27 11:24:18;;;;;;;0.20;0.20;;;;;;;;;;6190712;28;20014;-81
2024/01/27 11:27:26;;;;;;;0.20;0.20;;;;;;;;;;6201354;28;20037;-80
2024/01/27 11:30:27;;;;;;;0.20;0.20;;;;;;;;;;6207521;28;20388;-81
2024/01/27 11:33:28;;;;;;;0.20;0.20;;;;;;;;;;6198020;28;20026;-80
2024/01/27 11:36:28;;;;;;;0.20;0.20;;;;;;;;;;6205549;28;20034;-78
2024/01/27 11:39:29;;;;;;;0.20;0.20;;;;;;;;;;6215046;28;20388;-78
2024/01/27 11:42:29;;;;;;;0.20;0.20;;;;;;;;;;6217748;28;20080;-77
2024/01/27 11:45:30;;;;;;;0.20;0.20;;;;;;;;;;6192538;28;20488;-78
2024/01/27 11:48:30;;;;;;;0.20;0.20;;;;;;;;;;6235350;28;20400;-78
2024/01/27 11:51:30;;;;;;;0.20;0.20;;;;;;;;;;6241321;28;20488;-77
2024/01/27 11:54:30;;;;;;;0.20;0.20;;;;;;;;;;6245212;28;20036;-77
2024/01/27 11:57:30;;;;;;;0.20;0.20;;;;;;;;;;6241352;28;20052;-77
2024/01/27 12:00:31;;;;;;;0.20;0.20;;;;;;;;;;6240623;28;20045;-77
2024/01/27 12:03:32;;;;;;;0.20;0.20;;;;;;;;;;6240402;28;20021;-78
2024/01/27 12:06:32;;;;;;;0.20;0.20;;;;;;;;;;6217259;28;20032;-78
2024/01/27 12:09:33;;;;;;;0.20;0.20;;;;;;;;;;6237327;28;20040;-79
2024/01/27 12:12:33;;;;;;;0.20;0.20;;;;;;;;;;6223489;28;20032;-79
2024/01/27 12:15:33;;;;;;;0.20;0.20;;;;;;;;;;6235627;28;20023;-81
2024/01/27 12:18:34;;;;;;;0.20;0.20;;;;;;;;;;6240342;28;20035;-80
2024/01/27 12:21:34;;;;;;;0.20;0.20;;;;;;;;;;6222473;28;20043;-80
2024/01/27 12:24:34;;;;;;;0.20;0.20;;;;;;;;;;6234561;28;20018;-80
2024/01/27 12:27:34;;;;;;;0.20;0.20;;;;;;;;;;6220941;28;20503;-80
2024/01/27 12:30:35;;;;;;;0.20;0.20;;;;;;;;;;6222541;28;20026;-80
2024/01/27 12:33:36;;;;;;;0.20;0.20;;;;;;;;;;6235848;28;20051;-80
2024/01/27 12:36:40;;;;;;;0.20;0.20;;;;;;;;;;6215285;28;20025;-80
2024/01/27 12:39:43;;;;;;;0.20;0.20;;;;;;;;;;6226109;28;20679;-80
2024/01/27 12:42:43;;;;;;;0.20;0.20;;;;;;;;;;6247412;28;20018;-79
2024/01/27 12:45:43;;;;;;;0.20;0.20;;;;;;;;;;6234977;28;20536;-79
2024/01/27 12:48:45;;;;;;;0.20;0.20;;;;;;;;;;6222982;28;20049;-79
2024/01/27 12:51:47;;;;;;;0.20;0.20;;;;;;;;;;6226478;28;20029;-79
2024/01/27 12:54:47;;;;;;;0.20;0.20;;;;;;;;;;6235121;28;20017;-79
2024/01/27 12:57:47;;;;;;;0.20;0.20;;;;;;;;;;6238390;28;20029;-79
2024/01/27 13:00:48;;;;;;;0.20;0.20;;;;;;;;;;6229736;28;20064;-79
2024/01/27 13:03:50;;;;;;;0.20;0.20;;;;;;;;;;6223909;28;20010;-79
2024/01/27 13:06:51;;;;;;;0.20;0.20;;;;;;;;;;6240949;28;20038;-79
2024/01/27 13:09:51;;;;;;;0.20;0.20;;;;;;;;;;6242631;28;20050;-79
2024/01/27 13:12:51;;;;;;;0.20;0.20;;;;;;;;;;6241837;28;20032;-79
2024/01/27 13:15:51;;;;;;;0.20;0.20;;;;;;;;;;6240260;28;20179;-83
2024/01/27 13:18:51;;;;;;;0.20;0.20;;;;;;;;;;6239491;28;20021;-83
2024/01/27 13:21:52;;;;;;;0.20;0.20;;;;;;;;;;6236876;28;20029;-83
2024/01/27 13:24:52;;;;;;;0.20;0.20;;;;;;;;;;6243972;28;20086;-83
2024/01/27 13:27:52;;;;;;;0.20;0.20;;;;;;;;;;6243587;28;20013;-82
2024/01/27 13:30:53;;;;;;;0.20;0.20;;;;;;;;;;6239892;28;20136;-82
2024/01/27 13:33:53;;;;;;;0.20;0.20;;;;;;;;;;6237908;28;20115;-83
2024/01/27 13:36:53;;;;;;;0.20;0.20;;;;;;;;;;6238723;28;20366;-82
2024/01/27 13:39:56;;;;;;;0.20;0.20;;;;;;;;;;6230037;28;20025;-82
2024/01/27 13:42:57;;;;;;;0.20;0.20;;;;;;;;;;6233244;28;20043;-82
2024/01/27 13:45:58;;;;;;;0.20;0.20;;;;;;;;;;6242579;28;20017;-81
2024/01/27 13:48:58;;;;;;;0.20;0.20;;;;;;;;;;6243622;28;20112;-80
2024/01/27 13:51:59;;;;;;;0.20;0.20;;;;;;;;;;6242722;28;20130;-80
2024/01/27 13:54:59;;;;;;;0.20;0.20;;;;;;;;;;6235381;28;20040;-81
2024/01/27 13:58:00;;;;;;;0.20;0.20;;;;;;;;;;6236418;28;20132;-80
2024/01/27 14:01:03;;;;;;;0.20;0.20;;;;;;;;;;6244185;28;20373;-80
2024/01/27 14:04:06;;;;;;;0.20;0.20;;;;;;;;;;6231301;28;20026;-81
2024/01/27 14:07:09;;;;;;;0.20;0.20;;;;;;;;;;6241304;28;20061;-81
2024/01/27 14:10:09;;;;;;;0.30;0.30;;;;;;;;;;6226305;28;20412;-82
2024/01/27 14:13:09;;;;;;;0.20;0.20;;;;;;;;;;6241949;28;20080;-82
2024/01/27 14:16:10;;;;;;;0.20;0.20;;;;;;;;;;6233614;28;20132;-81
2024/01/27 14:19:11;;;;;;;0.20;0.20;;;;;;;;;;6236469;28;20064;-84
2024/01/27 14:22:11;;;;;;;0.20;0.20;;;;;;;;;;6234159;28;20030;-85
2024/01/27 14:25:11;;;;;;;0.20;0.20;;;;;;;;;;6246819;28;20658;-82
2024/01/27 14:28:13;;;;;;;0.20;0.20;;;;;;;;;;6221474;28;20025;-82
2024/01/27 14:31:13;;;;;;;;;;;;;;;;;;6237369;28;20032;-82
2024/01/27 14:34:14;;;;;;;0.27;0.27;;;;;;;;;;6235241;28;19916;-83
2024/01/27 14:37:16;;;;;;;0.20;0.20;;;;;;;;;;6233182;28;20728;-82
2024/01/27 14:40:18;;;;;;;0.20;0.20;;;;;;;;;;6240353;28;20033;-82
2024/01/27 14:43:18;;;;;;;0.20;0.20;;;;;;;;;;6248153;28;20030;-82
2024/01/27 14:46:19;;;;;;;0.20;0.20;;;;;;;;;;6245616;28;20010;-80
2024/01/27 14:49:22;;;;;;;0.20;0.20;;;;;;;;;;6209299;28;20042;-80
2024/01/27 14:52:23;;;;;;;0.20;0.20;;;;;;;;;;6217865;28;20041;-79
2024/01/27 14:55:26;;;;;;;0.20;0.20;;;;;;;;;;6217065;28;20032;-80
2024/01/27 14:58:26;;;;;;;0.20;0.20;;;;;;;;;;6217666;28;20026;-81
2024/01/27 15:01:27;;;;;;;0.20;0.20;;;;;;;;;;6215043;28;20022;-81
2024/01/27 15:04:27;;;;;;;0.20;0.20;;;;;;;;;;6215933;28;20105;-81
2024/01/27 15:07:29;;;;;;;0.20;0.20;;;;;;;;;;6220801;28;20023;-81
2024/01/27 15:10:29;;;;;;;;;;;;;;;;;;6211975;28;20164;-81
2024/01/27 15:13:30;;;;;;;0.20;0.20;;;;;;;;;;6214136;28;20272;-81
2024/01/27 15:16:32;;;;;;;0.20;0.20;;;;;;;;;;6191082;28;20056;-81
2024/01/27 15:19:32;;;;;;;0.20;0.20;;;;;;;;;;6215277;28;20029;-81
2024/01/27 15:22:32;;;;;;;0.20;0.20;;;;;;;;;;6198701;28;20025;-80
2024/01/27 15:25:33;;;;;;;0.20;0.20;;;;;;;;;;6207212;28;20026;-81
2024/01/27 15:28:33;;;;;;;0.20;0.20;;;;;;;;;;6217030;28;20070;-81
2024/01/27 15:31:33;;;;;;;0.20;0.20;;;;;;;;;;6214448;28;20025;-81
2024/01/27 15:34:34;;;;;;;0.20;0.20;;;;;;;;;;6214156;28;20036;-81
2024/01/27 15:37:34;;;;;;;0.20;0.20;;;;;;;;;;6206736;28;20033;-81
2024/01/27 15:40:34;;;;;;;0.30;0.30;;;;;;;;;;6207588;28;20030;-81
2024/01/27 15:43:35;;;;;;;0.20;0.20;;;;;;;;;;6213143;28;20081;-81
2024/01/27 15:46:35;;;;;;;0.20;0.20;;;;;;;;;;6207644;28;20029;-81
2024/01/27 15:49:36;;;;;;;0.20;0.20;;;;;;;;;;6240364;28;20132;-80
2024/01/27 15:52:36;;;;;;;0.20;0.20;;;;;;;;;;6234396;28;20033;-80
2024/01/27 15:55:36;;;;;;;0.20;0.20;;;;;;;;;;6241324;28;20025;-81
2024/01/27 15:58:37;;;;;;;0.20;0.20;;;;;;;;;;6240498;28;20151;-82
2024/01/27 16:01:37;;;;;;;0.20;0.20;;;;;;;;;;6240583;28;20430;-82
2024/01/27 16:04:37;;;;;;;0.20;0.20;;;;;;;;;;6222143;28;20392;-82
2024/01/27 16:07:37;;;;;;;0.20;0.20;;;;;;;;;;6242625;28;20018;-82
2024/01/27 16:10:38;;;;;;;0.20;0.20;;;;;;;;;;6242027;28;20018;-82
2024/01/27 16:13:38;;;;;;;0.20;0.20;;;;;;;;;;6242456;28;20033;-82
2024/01/27 16:16:39;;;;;;;0.20;0.20;;;;;;;;;;6225848;28;20132;-83
2024/01/27 16:19:39;;;;;;;0.20;0.20;;;;;;;;;;6237890;28;20139;-82
2024/01/27 16:22:39;;;;;;;0.20;0.20;;;;;;;;;;6236263;28;20487;-82
2024/01/27 16:25:39;;;;;;;0.20;0.20;;;;;;;;;;6251079;28;20480;-82
2024/01/27 16:28:40;;;;;;;0.20;0.20;;;;;;;;;;6242289;28;20052;-82
2024/01/27 16:31:40;;;;;;;0.20;0.20;;;;;;;;;;6221974;28;20033;-82
2024/01/27 16:34:41;;;;;;;0.20;0.20;;;;;;;;;;6222524;28;20483;-83
2024/01/27 16:37:42;;;;;;;0.20;0.20;;;;;;;;;;6248665;28;20487;-82
2024/01/27 16:40:43;;;;;;;0.20;0.20;;;;;;;;;;6246554;28;20014;-83
2024/01/27 16:43:43;;;;;;;0.20;0.20;;;;;;;;;;6234788;28;20069;-82
2024/01/27 16:46:45;;;;;;;0.23;0.23;;;;;;;;;;6230412;28;20049;-83
2024/01/27 16:49:46;;;;;;;0.20;0.20;;;;;;;;;;6221937;28;20543;-83
2024/01/27 16:52:46;;;;;;;0.20;0.20;;;;;;;;;;6233402;28;20029;-80
2024/01/27 16:55:46;;;;;;;0.20;0.20;;;;;;;;;;6233599;28;20072;-80
2024/01/27 16:58:49;;;;;;;0.20;0.20;;;;;;;;;;6240058;28;20017;-80
2024/01/27 17:01:53;;;;;;;0.20;0.20;;;;;;;;;;6217267;28;20423;-80
2024/01/27 17:04:53;;;;;;;0.20;0.20;;;;;;;;;;6228258;28;20412;-80
2024/01/27 17:07:53;;;;;;;0.20;0.20;;;;;;;;;;6232337;28;20112;-78
2024/01/27 17:10:54;;;;;;;0.20;0.20;;;;;;;;;;6243396;28;20021;-77
2024/01/27 17:13:56;;;;;;;0.20;0.20;;;;;;;;;;6240204;28;20104;-79
2024/01/27 17:16:56;;;;;;;0.20;0.20;;;;;;;;;;6231284;28;20045;-79
2024/01/27 17:19:57;;;;;;;0.20;0.20;;;;;;;;;;6238801;28;20433;-79
2024/01/27 17:22:57;;;;;;;0.20;0.20;;;;;;;;;;6239053;28;20033;-79
2024/01/27 17:25:57;;;;;;;0.20;0.20;;;;;;;;;;6223047;28;20547;-79
2024/01/27 17:28:58;;;;;;;0.20;0.20;;;;;;;;;;6244839;28;20028;-79
2024/01/27 17:31:58;;;;;;;0.20;0.20;;;;;;;;;;6229935;28;20034;-79
2024/01/27 17:34:59;;;;;;;0.20;0.20;;;;;;;;;;6249575;28;20025;-79
2024/01/27 17:37:59;;;;;;;0.20;0.20;;;;;;;;;;6224921;28;20024;-79
2024/01/27 17:47:12;;;;;;;0.20;0.20;;;;;;;;;;6241118;28;20573;-81
2024/01/27 17:50:12;;;;;;;0.20;0.20;;;;;;;;;;6244007;28;20403;-81
2024/01/27 17:53:14;;;;;;;0.20;0.20;;;;;;;;;;6220542;28;20025;-81
2024/01/27 17:56:23;;;;;;;0.20;0.20;;;;;;;;;;6214638;28;20021;-80
2024/01/27 18:05:36;;;;;;;0.20;0.20;;;;;;;;;;6194566;28;20108;-80
2024/01/27 18:08:36;;;;;;;0.20;0.20;;;;;;;;;;6201080;28;20563;-80
2024/01/27 18:11:37;;;;;;;0.20;0.20;;;;;;;;;;6196893;28;20066;-80
2024/01/27 18:14:37;;;;;;;0.20;0.20;;;;;;;;;;6195058;28;20405;-80